Time;durP1;ratioP1;P1;durP2;ratioP2;P2;SDS_P1;SDS_P2;PMS_P1;PMS_P2;Temp;Humidity;BMP_temperature;BMP_pressure;BME280_temperature;BME280_humidity;BME280_pressure;Samples;Min_cycle;Max_cycle;Signal;HPM_P1;HPM_P2
2023/09/26 00:01:30;;;;;;;7.37;6.03;;;;;;;11.73;100.00;98586.72;6240980;28;20230;-57
2023/09/26 00:04:32;;;;;;;8.63;6.07;;;;;;;11.72;100.00;98582.38;6243251;28;20235;-54
2023/09/26 00:07:36;;;;;;;8.07;6.27;;;;;;;11.52;100.00;98551.44;6241375;28;20274;-57
2023/09/26 00:10:39;;;;;;;8.53;6.70;;;;;;;11.72;100.00;98579.72;6242732;28;20241;-56
2023/09/26 00:13:43;;;;;;;10.53;6.77;;;;;;;11.53;100.00;98547.75;6240317;28;20810;-57
2023/09/26 00:16:45;;;;;;;9.57;6.97;;;;;;;11.73;100.00;98576.84;6231824;28;20243;-56
2023/09/26 00:19:48;;;;;;;7.60;6.40;;;;;;;11.71;100.00;98580.75;6242094;28;20602;-55
2023/09/26 00:22:50;;;;;;;11.03;7.07;;;;;;;11.69;100.00;98585.53;6242993;28;20222;-53
2023/09/26 00:25:52;;;;;;;10.10;6.73;;;;;;;11.69;100.00;98580.19;6229807;28;20247;-57
2023/09/26 00:28:54;;;;;;;6.90;6.20;;;;;;;11.48;100.00;98555.63;6244231;28;20280;-53
2023/09/26 00:31:58;;;;;;;9.57;6.23;;;;;;;11.64;100.00;98580.88;6241503;28;20243;-56
2023/09/26 00:35:01;;;;;;;10.70;6.17;;;;;;;11.63;100.00;98577.38;6242700;28;20276;-57
2023/09/26 00:38:03;;;;;;;10.60;7.63;;;;;;;11.65;100.00;98574.47;6239723;28;20323;-57
2023/09/26 00:41:07;;;;;;;6.63;5.93;;;;;;;11.64;100.00;98572.88;6241950;28;20376;-56
2023/09/26 00:44:11;;;;;;;10.77;7.10;;;;;;;11.61;100.00;98579.44;6243360;28;20608;-54
2023/09/26 00:47:16;;;;;;;11.33;6.67;;;;;;;11.63;100.00;98566.72;6247713;28;20234;-54
2023/09/26 00:50:22;;;;;;;10.03;6.60;;;;;;;11.61;100.00;98568.78;6240431;28;20600;-52
2023/09/26 00:53:27;;;;;;;9.10;6.33;;;;;;;11.58;100.00;98563.09;6240926;28;20274;-55
2023/09/26 00:56:30;;;;;;;7.67;6.33;;;;;;;11.54;100.00;98561.91;6237613;28;20716;-56
2023/09/26 00:59:33;;;;;;;9.27;6.70;;;;;;;11.54;100.00;98565.41;6238782;28;20215;-56
2023/09/26 01:02:36;;;;;;;10.20;7.07;;;;;;;11.52;100.00;98567.47;6226311;28;20231;-54
2023/09/26 01:05:38;;;;;;;6.77;6.07;;;;;;;11.34;100.00;98538.16;6239507;28;20231;-56
2023/09/26 01:08:41;;;;;;;11.10;6.73;;;;;;;11.46;100.00;98563.03;6232534;28;20228;-54
2023/09/26 01:11:44;;;;;;;8.47;6.53;;;;;;;11.46;100.00;98559.56;6242850;28;20360;-53
2023/09/26 01:14:46;;;;;;;8.53;7.00;;;;;;;11.44;100.00;98562.47;6247013;28;20322;-55
2023/09/26 01:17:49;;;;;;;8.57;6.47;;;;;;;11.40;100.00;98561.28;6252090;28;20230;-53
2023/09/26 01:20:52;;;;;;;9.60;6.60;;;;;;;11.34;100.00;98563.00;6250134;28;20242;-55
2023/09/26 01:23:56;;;;;;;8.63;5.90;;;;;;;11.37;100.00;98557.19;6248123;28;20727;-54
2023/09/26 01:26:58;;;;;;;9.07;6.47;;;;;;;11.30;100.00;98551.13;6246876;28;20794;-57
2023/09/26 01:30:00;;;;;;;10.80;6.70;;;;;;;11.33;100.00;98561.38;6248555;28;20226;-56
2023/09/26 01:33:08;;;;;;;10.03;6.03;;;;;;;11.38;100.00;98552.69;6232772;28;20714;-55
2023/09/26 01:36:10;;;;;;;6.97;6.20;;;;;;;11.35;100.00;98556.59;6242748;28;20227;-56
2023/09/26 01:39:13;;;;;;;7.30;5.97;;;;;;;11.38;100.00;98560.69;6246273;28;20260;-54
2023/09/26 01:42:16;;;;;;;7.17;5.30;;;;;;;11.35;100.00;98558.47;6236750;28;20243;-57
2023/09/26 01:45:18;;;;;;;8.53;5.83;;;;;;;11.35;100.00;98559.28;6248346;28;20281;-55
2023/09/26 01:48:20;;;;;;;8.00;5.87;;;;;;;11.23;100.00;98545.09;6249416;28;20239;-54
2023/09/26 01:51:22;;;;;;;6.67;5.83;;;;;;;11.36;100.00;98554.75;6244492;28;20231;-60
2023/09/26 01:54:25;;;;;;;9.40;6.53;;;;;;;11.37;100.00;98559.03;6250385;28;20227;-52
2023/09/26 01:57:28;;;;;;;7.73;6.20;;;;;;;11.29;100.00;98546.03;6246855;28;20242;-57
2023/09/26 02:00:30;;;;;;;8.70;6.77;;;;;;;11.39;100.00;98548.16;6237558;28;20785;-55
2023/09/26 02:03:33;;;;;;;7.40;6.17;;;;;;;11.26;100.00;98543.81;6250708;28;20235;-57
2023/09/26 02:06:35;;;;;;;7.03;5.50;;;;;;;11.24;100.00;98561.91;6236738;28;20239;-57
2023/09/26 02:09:37;;;;;;;7.17;6.40;;;;;;;11.09;100.00;98544.44;6245919;28;20241;-54
2023/09/26 02:12:43;;;;;;;9.17;7.13;;;;;;;11.23;100.00;98553.09;6245346;28;20238;-53
2023/09/26 02:15:47;;;;;;;9.83;6.73;;;;;;;11.29;100.00;98551.38;6250280;28;20940;-56
2023/09/26 02:18:49;;;;;;;10.73;6.20;;;;;;;11.23;100.00;98539.75;6237096;28;20235;-53
2023/09/26 02:21:52;;;;;;;9.43;7.07;;;;;;;11.27;100.00;98554.25;6261085;28;20219;-57
2023/09/26 02:24:54;;;;;;;9.53;7.27;;;;;;;11.24;100.00;98549.38;6243239;28;20234;-57
2023/09/26 02:27:56;;;;;;;8.17;6.63;;;;;;;11.02;100.00;98519.69;6233400;28;20315;-56
2023/09/26 02:30:59;;;;;;;25.33;17.00;;;;;;;11.20;100.00;98547.38;6244295;28;20237;-53
2023/09/26 02:34:01;;;;;;;11.13;8.60;;;;;;;11.01;100.00;98526.06;6241277;28;20230;-57
2023/09/26 02:37:03;;;;;;;9.67;7.30;;;;;;;11.17;100.00;98539.81;6250832;28;20208;-55
2023/09/26 02:40:10;;;;;;;10.07;7.33;;;;;;;11.16;100.00;98541.66;6246276;28;20368;-57
2023/09/26 02:43:13;;;;;;;10.23;7.20;;;;;;;11.13;100.00;98546.63;6240900;28;20289;-57
2023/09/26 02:46:15;;;;;;;8.47;7.50;;;;;;;11.05;100.00;98537.91;6262918;28;20234;-57
2023/09/26 02:49:18;;;;;;;7.97;7.13;;;;;;;11.06;100.00;98533.38;6243879;28;20884;-56
2023/09/26 02:52:22;;;;;;;10.87;7.77;;;;;;;11.06;100.00;98534.19;6250872;28;20231;-57
2023/09/26 02:55:24;;;;;;;8.27;7.23;;;;;;;11.16;100.00;98544.34;6242993;28;20235;-57
2023/09/26 02:58:26;;;;;;;8.70;7.67;;;;;;;11.11;100.00;98528.19;6243127;28;20291;-55
2023/09/26 03:01:29;;;;;;;9.30;7.57;;;;;;;11.23;100.00;98538.91;6242143;28;20224;-56
2023/09/26 03:04:31;;;;;;;11.50;7.70;;;;;;;11.22;100.00;98540.75;6246826;28;20241;-56
2023/09/26 03:07:33;;;;;;;10.63;7.97;;;;;;;11.27;100.00;98540.91;6252380;28;20224;-53
2023/09/26 03:10:36;;;;;;;9.30;8.00;;;;;;;10.81;100.00;98478.31;6230644;28;21074;-56
2023/09/26 03:13:38;;;;;;;12.40;8.30;;;;;;;11.10;100.00;98519.38;6240215;28;20250;-57
2023/09/26 03:16:41;;;;;;;9.03;8.13;;;;;;;11.24;100.00;98540.56;6245930;28;20242;-56
2023/09/26 03:19:44;;;;;;;11.73;8.10;;;;;;;11.18;100.00;98531.59;6241698;28;20768;-56
2023/09/26 03:22:47;;;;;;;11.03;8.33;;;;;;;11.26;100.00;98535.81;6248551;28;20245;-55
2023/09/26 03:25:49;;;;;;;13.20;8.87;;;;;;;11.15;100.00;98518.72;6237435;28;20325;-57
2023/09/26 03:28:51;;;;;;;10.97;7.90;;;;;;;11.30;100.00;98543.13;6232574;28;20223;-56
2023/09/26 03:31:56;;;;;;;9.73;7.10;;;;;;;11.26;100.00;98546.47;6241938;28;20591;-54
2023/09/26 03:34:58;;;;;;;10.43;8.00;;;;;;;11.27;100.00;98542.75;6240748;28;20238;-57
2023/09/26 03:38:00;;;;;;;9.33;8.10;;;;;;;11.27;100.00;98540.91;6231115;28;20374;-57
2023/09/26 03:41:04;;;;;;;9.67;7.77;;;;;;;11.16;100.00;98522.19;6240718;28;20230;-57
2023/09/26 03:44:07;;;;;;;12.13;9.50;;;;;;;11.24;100.00;98544.03;6240937;28;20772;-57
2023/09/26 03:47:09;;;;;;;9.80;8.37;;;;;;;11.21;100.00;98541.81;6241731;28;20653;-52
2023/09/26 03:50:11;;;;;;;9.43;8.10;;;;;;;11.16;100.00;98530.19;6241990;28;20231;-57
2023/09/26 03:53:13;;;;;;;12.03;7.33;;;;;;;11.15;100.00;98534.72;6249509;28;20252;-54
2023/09/26 03:56:16;;;;;;;10.23;6.80;;;;;;;11.13;100.00;98531.44;6242912;28;20211;-56
2023/09/26 03:59:18;;;;;;;10.23;6.87;;;;;;;11.16;100.00;98538.19;6240604;28;20712;-55
2023/09/26 04:02:20;;;;;;;11.23;8.10;;;;;;;11.17;100.00;98531.81;6236392;28;20223;-54
2023/09/26 04:05:23;;;;;;;11.30;7.60;;;;;;;11.14;100.00;98525.09;6242729;28;20647;-53
2023/09/26 04:08:25;;;;;;;9.73;7.30;;;;;;;11.09;100.00;98524.94;6232590;28;20231;-56
2023/09/26 04:11:27;;;;;;;8.27;6.70;;;;;;;11.09;100.00;98530.28;6242396;28;20272;-56
2023/09/26 04:14:30;;;;;;;12.57;7.40;;;;;;;11.07;100.00;98525.16;6246069;28;20265;-53
2023/09/26 04:17:32;;;;;;;8.23;6.87;;;;;;;11.12;100.00;98527.16;6241486;28;20281;-54
2023/09/26 04:20:38;;;;;;;9.33;7.23;;;;;;;11.04;100.00;98506.16;6248363;28;20227;-51
2023/09/26 04:23:41;;;;;;;8.60;7.40;;;;;;;10.89;100.00;98495.06;6242595;28;20235;-56
2023/09/26 04:26:43;;;;;;;8.57;6.73;;;;;;;10.93;100.00;98518.34;6241485;28;20723;-53
2023/09/26 04:29:45;;;;;;;8.37;6.57;;;;;;;11.02;100.00;98534.88;6243168;28;20672;-55
2023/09/26 04:32:47;;;;;;;9.00;6.73;;;;;;;11.01;100.00;98525.25;6241757;28;20746;-56
2023/09/26 04:35:56;;;;;;;9.47;7.13;;;;;;;10.56;100.00;98456.28;6241373;28;20368;-51
2023/09/26 04:38:58;;;;;;;9.23;6.50;;;;;;;11.02;100.00;98532.19;6241625;28;20605;-57
2023/09/26 04:42:00;;;;;;;9.13;6.90;;;;;;;11.00;100.00;98527.09;6243083;28;20258;-57
2023/09/26 04:45:03;;;;;;;9.37;7.13;;;;;;;11.03;100.00;98529.31;6230175;28;20620;-54
2023/09/26 04:48:05;;;;;;;9.33;7.07;;;;;;;11.00;100.00;98536.94;6239157;28;20322;-54
2023/09/26 04:51:12;;;;;;;10.13;7.00;;;;;;;11.00;100.00;98535.09;6241844;28;20353;-55
2023/09/26 04:54:15;;;;;;;10.03;7.57;;;;;;;11.06;100.00;98534.19;6243300;28;20590;-52
2023/09/26 04:57:17;;;;;;;9.90;7.20;;;;;;;11.03;100.00;98529.31;6239052;28;20310;-57
2023/09/26 05:00:19;;;;;;;8.37;6.87;;;;;;;11.01;100.00;98528.72;6237519;28;20262;-52
2023/09/26 05:03:22;;;;;;;8.87;7.40;;;;;;;11.00;100.00;98532.44;6243723;28;20245;-54
2023/09/26 05:06:24;;;;;;;10.30;6.83;;;;;;;10.95;100.00;98531.47;6238928;28;20250;-54
2023/09/26 05:09:26;;;;;;;9.23;6.83;;;;;;;10.96;100.00;98533.91;6241850;28;20317;-57
2023/09/26 05:12:29;;;;;;;7.50;6.60;;;;;;;10.96;100.00;98535.75;6235844;28;20231;-57
2023/09/26 05:15:34;;;;;;;9.33;7.00;;;;;;;11.07;100.00;98535.00;6221033;28;20235;-56
2023/09/26 05:18:36;;;;;;;8.93;7.27;;;;;;;11.07;100.00;98533.16;6243262;28;20235;-55
2023/09/26 05:21:38;;;;;;;9.90;8.53;;;;;;;11.09;100.00;98523.09;6242789;28;20235;-56
2023/09/26 05:24:40;;;;;;;9.70;8.03;;;;;;;11.18;100.00;98533.44;6236549;28;20301;-57
2023/09/26 05:27:43;;;;;;;9.97;7.30;;;;;;;11.15;100.00;98526.72;6236609;28;20245;-55
2023/09/26 05:30:46;;;;;;;14.83;7.90;;;;;;;11.16;100.00;98535.53;6241275;28;20226;-56
2023/09/26 05:33:48;;;;;;;10.03;7.57;;;;;;;11.05;100.00;98510.44;6236757;28;20243;-57
2023/09/26 05:36:51;;;;;;;11.97;7.90;;;;;;;11.23;100.00;98536.25;6241483;28;20235;-59
2023/09/26 05:39:53;;;;;;;10.43;7.27;;;;;;;10.99;100.00;98496.16;6235734;28;20235;-56
2023/09/26 05:42:55;;;;;;;8.60;7.70;;;;;;;11.14;100.00;98513.63;6239794;28;20721;-57
2023/09/26 05:45:57;;;;;;;11.40;7.70;;;;;;;11.19;100.00;98519.09;6237745;28;20247;-58
2023/09/26 05:49:00;;;;;;;9.40;7.73;;;;;;;11.30;100.00;98534.31;6239452;28;20238;-57
2023/09/26 05:52:02;;;;;;;11.77;7.33;;;;;;;11.31;100.00;98539.41;6240070;28;20604;-56
2023/09/26 05:55:05;;;;;;;9.03;7.10;;;;;;;11.22;100.00;98523.94;6238703;28;20320;-58
2023/09/26 05:58:08;;;;;;;8.70;7.80;;;;;;;11.32;100.00;98533.03;6238817;28;20895;-57
2023/09/26 06:01:11;;;;;;;9.97;7.47;;;;;;;11.42;100.00;98537.84;6245996;28;20245;-55
2023/09/26 06:04:14;;;;;;;11.03;7.80;;;;;;;11.50;100.00;98529.53;6246483;28;20236;-57
2023/09/26 06:07:16;;;;;;;15.93;8.77;;;;;;;11.56;100.00;98535.81;6248331;28;20721;-56
2023/09/26 06:10:19;;;;;;;9.83;6.93;;;;;;;11.61;100.00;98531.41;6258199;28;20242;-53
2023/09/26 06:13:21;;;;;;;10.60;7.53;;;;;;;11.55;100.00;98507.50;6245729;28;20747;-55
2023/09/26 06:16:24;;;;;;;10.53;7.70;;;;;;;11.73;100.00;98534.13;6242213;28;20238;-56
2023/09/26 06:19:26;;;;;;;9.23;7.90;;;;;;;11.77;100.00;98524.63;6247413;28;20239;-58
2023/09/26 06:22:28;;;;;;;9.77;7.97;;;;;;;11.82;100.00;98531.97;6245181;28;20709;-56
2023/09/26 06:25:31;;;;;;;10.23;7.97;;;;;;;11.88;100.00;98529.22;6243408;28;20238;-55
2023/09/26 06:28:43;;;;;;;10.43;7.70;;;;;;;11.94;100.00;98527.47;6245082;28;20243;-53
2023/09/26 06:31:45;;;;;;;8.50;6.43;;;;;;;12.00;100.00;98523.06;6244972;28;20582;-56
2023/09/26 06:34:47;;;;;;;9.13;6.60;;;;;;;11.93;100.00;98509.84;6246710;28;20223;-52
2023/09/26 06:37:52;;;;;;;7.10;6.40;;;;;;;12.06;100.00;98524.81;6241888;28;20264;-58
2023/09/26 06:41:02;;;;;;;6.80;6.00;;;;;;;12.12;100.00;98527.41;6243418;28;20242;-55
2023/09/26 06:44:04;;;;;;;7.87;6.63;;;;;;;12.14;100.00;98521.81;6241381;28;20327;-56
2023/09/26 06:47:07;;;;;;;7.17;6.10;;;;;;;12.22;100.00;98531.34;6231420;28;20242;-51
2023/09/26 06:50:10;;;;;;;5.67;5.17;;;;;;;12.27;100.00;98528.81;6256686;28;20235;-55
2023/09/26 06:53:13;;;;;;;6.07;5.57;;;;;;;12.24;100.00;98510.56;6239935;28;20231;-56
2023/09/26 06:56:15;;;;;;;6.13;5.57;;;;;;;12.38;100.00;98530.66;6243475;28;20224;-56
2023/09/26 06:59:18;;;;;;;6.17;5.30;;;;;;;12.47;100.00;98528.44;6241999;28;20308;-55
2023/09/26 07:02:20;;;;;;;6.90;6.20;;;;;;;12.54;100.00;98532.63;6243703;28;20222;-57
2023/09/26 07:05:26;;;;;;;7.83;6.03;;;;;;;12.55;100.00;98523.53;6242879;28;20220;-57
2023/09/26 07:08:28;;;;;;;6.23;5.57;;;;;;;12.60;100.00;98515.63;6242669;28;20243;-57
2023/09/26 07:11:30;;;;;;;7.97;6.03;;;;;;;12.80;100.00;98530.50;6229831;28;20251;-56
2023/09/26 07:14:35;;;;;;;6.37;5.73;;;;;;;12.91;100.00;98530.50;6240633;28;20261;-58
2023/09/26 07:17:37;;;;;;;7.03;5.30;;;;;;;13.03;100.00;98535.00;6233334;28;20310;-56
2023/09/26 07:20:47;;;;;;;6.17;5.43;;;;;;;13.14;100.00;98536.81;6240754;28;20235;-56
2023/09/26 07:23:50;;;;;;;7.47;5.77;;;;;;;13.13;100.00;98525.31;6240917;28;20723;-58
2023/09/26 07:26:52;;;;;;;8.13;6.33;;;;;;;13.15;100.00;98504.50;6240751;28;20258;-56
2023/09/26 07:29:54;;;;;;;7.57;5.77;;;;;;;13.42;100.00;98528.84;6242561;28;20663;-56
2023/09/26 07:32:57;;;;;;;8.83;6.33;;;;;;;13.59;100.00;98520.84;6228759;28;20231;-58
2023/09/26 07:35:59;;;;;;;6.93;6.13;;;;;;;13.92;100.00;98541.50;6243433;28;20216;-58
2023/09/26 07:39:03;;;;;;;7.00;6.33;;;;;;;14.14;100.00;98538.94;6244221;28;20230;-56
2023/09/26 07:42:06;;;;;;;7.80;6.60;;;;;;;14.34;100.00;98541.13;6241397;28;20318;-58
2023/09/26 07:45:09;;;;;;;7.03;6.37;;;;;;;14.47;100.00;98518.53;6244797;28;20814;-58
2023/09/26 07:48:11;;;;;;;6.80;6.10;;;;;;;14.77;100.00;98538.81;6230914;28;20236;-57
2023/09/26 07:51:13;;;;;;;7.83;6.33;;;;;;;14.81;100.00;98521.97;6242357;28;20220;-58
2023/09/26 07:54:17;;;;;;;7.10;6.40;;;;;;;15.07;100.00;98539.19;6235063;28;20276;-57
2023/09/26 07:57:20;;;;;;;8.37;6.83;;;;;;;15.27;100.00;98527.91;6243805;28;20581;-56
2023/09/26 08:00:23;;;;;;;6.97;6.23;;;;;;;15.45;100.00;98535.63;6240083;28;20224;-53
2023/09/26 08:03:25;;;;;;;7.13;5.53;;;;;;;15.60;100.00;98524.22;6229320;28;20231;-59
2023/09/26 08:06:28;;;;;;;7.00;6.30;;;;;;;15.77;100.00;98531.41;6240621;28;20619;-55
2023/09/26 08:09:31;;;;;;;7.10;5.77;;;;;;;15.89;100.00;98527.50;6244848;28;20231;-58
2023/09/26 08:12:36;;;;;;;6.73;5.50;;;;;;;16.02;100.00;98522.78;6242558;28;20238;-57
2023/09/26 08:15:38;;;;;;;7.77;6.27;;;;;;;16.04;100.00;98513.38;6236781;28;20311;-57
2023/09/26 08:18:40;;;;;;;6.37;5.77;;;;;;;16.25;100.00;98530.47;6244866;28;20277;-57
2023/09/26 08:21:45;;;;;;;7.00;6.23;;;;;;;16.40;100.00;98529.75;6240261;28;20719;-55
2023/09/26 08:24:47;;;;;;;10.17;5.97;;;;;;;16.49;100.00;98518.25;6247128;28;20230;-58
2023/09/26 08:27:50;;;;;;;7.77;5.97;;;;;;;16.68;100.00;98529.41;6240968;28;20585;-57
2023/09/26 08:30:59;;;;;;;11.37;6.70;;;;;;;16.83;100.00;98533.28;6227677;28;20230;-58
2023/09/26 08:34:02;;;;;;;8.50;5.90;;;;;;;16.97;100.00;98527.19;6243832;28;20494;-58
2023/09/26 08:37:05;;;;;;;7.67;5.57;;;;;;;16.95;100.00;98507.81;6230150;28;20690;-58
2023/09/26 08:40:10;;;;;;;6.53;5.40;;;;;;;17.22;100.00;98533.75;6236777;28;20232;-58
2023/09/26 08:43:14;;;;;;;9.33;5.50;;;;;;;17.41;100.00;98526.81;6239022;28;20231;-57
2023/09/26 08:46:17;;;;;;;7.97;4.97;;;;;;;17.77;100.00;98526.91;6239809;28;20230;-59
2023/09/26 08:49:19;;;;;;;8.73;5.27;;;;;;;17.97;100.00;98529.59;6238129;28;20251;-59
2023/09/26 08:52:25;;;;;;;5.87;5.00;;;;;;;18.20;100.00;98533.66;6239736;28;20628;-57
2023/09/26 08:55:28;;;;;;;9.87;4.50;;;;;;;18.36;100.00;98523.66;6238773;28;20291;-59
2023/09/26 08:58:31;;;;;;;6.73;4.93;;;;;;;18.51;100.00;98529.03;6240646;28;20227;-58
2023/09/26 09:01:34;;;;;;;12.83;5.47;;;;;;;18.95;96.60;98516.81;6236446;28;20227;-58
2023/09/26 09:04:43;;;;;;;8.87;4.10;;;;;;;19.01;100.00;98518.41;6244342;28;20784;-55
2023/09/26 09:07:46;;;;;;;6.93;4.70;;;;;;;19.17;95.96;98511.88;6245127;28;20231;-58
2023/09/26 09:10:53;;;;;;;6.23;3.93;;;;;;;19.43;94.59;98512.56;6239513;28;20223;-59
2023/09/26 09:13:55;;;;;;;7.53;3.73;;;;;;;19.55;94.29;98513.00;6235197;28;20228;-57
2023/09/26 09:16:58;;;;;;;5.97;4.00;;;;;;;19.81;88.00;98507.50;6241347;28;20348;-59
2023/09/26 09:20:00;;;;;;;7.93;4.00;;;;;;;19.84;88.93;98513.13;6239895;28;20608;-58
2023/09/26 09:23:05;;;;;;;7.33;4.03;;;;;;;19.89;91.97;98506.06;6239774;28;20231;-57
2023/09/26 09:26:12;;;;;;;7.70;4.03;;;;;;;20.00;87.68;98502.19;6229386;28;20318;-59
2023/09/26 09:29:19;;;;;;;8.70;3.73;;;;;;;20.07;91.05;98506.19;6240458;28;20288;-57
2023/09/26 09:32:23;;;;;;;7.90;3.70;;;;;;;20.22;88.34;98510.66;6237221;28;20278;-55
2023/09/26 09:35:25;;;;;;;6.57;4.00;;;;;;;20.22;89.37;98502.53;6245403;28;20227;-58
2023/09/26 09:38:32;;;;;;;4.57;3.30;;;;;;;20.30;91.09;98499.25;6238966;28;20233;-59
2023/09/26 09:41:37;;;;;;;4.13;3.47;;;;;;;20.31;92.41;98497.34;6242823;28;20326;-59
2023/09/26 09:44:40;;;;;;;5.07;3.13;;;;;;;20.31;93.13;98481.09;6240891;28;20238;-58
2023/09/26 09:47:45;;;;;;;5.53;3.40;;;;;;;20.50;89.11;98494.75;6246725;28;20639;-55
2023/09/26 09:50:52;;;;;;;10.10;3.73;;;;;;;20.76;84.10;98484.44;6228309;28;20345;-58
2023/09/26 09:53:55;;;;;;;4.60;4.00;;;;;;;20.77;84.40;98480.63;6241935;28;20239;-59
2023/09/26 09:57:01;;;;;;;8.37;4.07;;;;;;;20.73;81.72;98458.72;6243498;28;20223;-58
2023/09/26 10:00:08;;;;;;;7.43;4.20;;;;;;;20.84;84.95;98465.66;6242933;28;20289;-58
2023/09/26 10:03:11;;;;;;;7.57;4.20;;;;;;;21.00;82.41;98470.88;6255971;28;20224;-57
2023/09/26 10:06:14;;;;;;;5.17;4.00;;;;;;;21.04;82.58;98474.63;6242682;28;20385;-54
2023/09/26 10:09:20;;;;;;;7.27;4.50;;;;;;;21.09;82.65;98471.88;6244557;28;20243;-59
2023/09/26 10:12:26;;;;;;;5.77;4.50;;;;;;;21.25;80.63;98470.56;6245622;28;20314;-62
2023/09/26 10:16:17;;;;;;;8.90;4.50;;;;;;;21.38;77.97;98474.47;6243891;28;20228;-59
2023/09/26 10:19:24;;;;;;;7.50;4.27;;;;;;;21.50;76.98;98463.19;6257028;28;20239;-58
2023/09/26 10:22:46;;;;;;;8.37;4.47;;;;;;;21.48;76.82;98459.97;6243040;28;20220;-58
2023/09/26 10:25:48;;;;;;;8.73;4.37;;;;;;;21.33;77.09;98426.56;6247073;28;20249;-59
2023/09/26 10:28:52;;;;;;;4.77;4.00;;;;;;;21.40;77.63;98428.91;6243977;28;20372;-57
2023/09/26 10:32:04;;;;;;;9.77;5.13;;;;;;;21.60;75.90;98455.69;6247422;28;20239;-58
2023/09/26 10:35:16;;;;;;;6.10;4.20;;;;;;;21.71;78.14;98455.53;6243389;28;20239;-57
2023/09/26 10:38:38;;;;;;;8.77;5.47;;;;;;;21.72;80.03;98460.66;6244365;28;20318;-58
2023/09/26 10:41:40;;;;;;;6.80;4.47;;;;;;;21.71;80.52;98441.97;6241878;28;20242;-56
2023/09/26 10:45:04;;;;;;;8.30;4.73;;;;;;;21.92;77.69;98456.84;6241091;28;20274;-56
2023/09/26 10:48:07;;;;;;;9.67;4.53;;;;;;;21.97;76.80;98458.63;6246948;28;20608;-58
2023/09/26 10:51:29;;;;;;;7.53;4.60;;;;;;;22.00;75.48;98455.34;6241977;28;20654;-58
2023/09/26 10:54:34;;;;;;;11.83;4.70;;;;;;;22.26;73.98;98451.09;6248940;28;20227;-56
2023/09/26 10:57:38;;;;;;;7.77;5.60;;;;;;;22.18;74.06;98451.81;6242835;28;20617;-58
2023/09/26 11:00:49;;;;;;;6.80;4.87;;;;;;;22.20;74.43;98446.88;6244396;28;20245;-58
2023/09/26 11:03:52;;;;;;;8.57;4.73;;;;;;;22.25;73.73;98443.25;6246506;28;20231;-59
2023/09/26 11:06:56;;;;;;;7.17;4.70;;;;;;;22.26;73.14;98434.00;6242997;28;20235;-57
2023/09/26 11:09:59;;;;;;;6.83;4.60;;;;;;;22.37;73.18;98443.59;6259994;28;20788;-58
2023/09/26 11:13:02;;;;;;;6.97;4.40;;;;;;;22.37;73.99;98443.59;6240865;28;20231;-58
2023/09/26 11:16:06;;;;;;;8.03;4.50;;;;;;;22.42;71.60;98435.34;6245697;28;20607;-57
2023/09/26 11:19:12;;;;;;;9.53;4.70;;;;;;;22.29;72.53;98420.66;6257877;28;20664;-56
2023/09/26 11:22:14;;;;;;;9.05;4.40;;;;;;;22.45;72.94;98425.78;6240936;28;20371;-54
2023/09/26 11:25:17;;;;;;;9.83;4.67;;;;;;;22.50;71.71;98423.78;6240971;28;20231;-57
2023/09/26 11:28:20;;;;;;;10.77;5.07;;;;;;;22.53;70.84;98422.38;6243675;28;20232;-57
2023/09/26 11:31:23;;;;;;;12.57;4.85;;;;;;;22.61;73.00;98432.53;6243389;28;20227;-59
2023/09/26 11:34:26;;;;;;;6.95;4.53;;;;;;;22.71;72.19;98426.91;6237422;28;20262;-55
2023/09/26 11:37:31;;;;;;;7.13;4.80;;;;;;;22.60;71.33;98418.13;6240930;28;20244;-58
2023/09/26 11:40:34;;;;;;;7.68;4.50;;;;;;;22.66;70.94;98418.88;6244505;28;20232;-57
2023/09/26 11:43:41;;;;;;;9.93;4.75;;;;;;;22.76;71.95;98415.13;6242470;28;20262;-58
2023/09/26 11:46:48;;;;;;;7.53;4.80;;;;;;;22.74;70.41;98406.47;6242061;28;20228;-56
2023/09/26 11:49:51;;;;;;;7.65;4.20;;;;;;;22.76;70.99;98410.50;6240787;28;20615;-57
2023/09/26 11:52:58;;;;;;;7.07;4.50;;;;;;;23.05;70.04;98407.44;6243724;28;20233;-58
2023/09/26 11:56:00;;;;;;;7.55;4.53;;;;;;;23.05;69.39;98406.66;6242496;28;20882;-52
2023/09/26 11:59:06;;;;;;;7.28;5.00;;;;;;;23.03;70.67;98385.22;6239918;28;20234;-58
2023/09/26 12:02:09;;;;;;;4.80;4.40;;;;;;;23.09;69.76;98405.72;6241949;28;20231;-57
2023/09/26 12:05:13;;;;;;;6.63;4.97;;;;;;;23.11;69.89;98394.56;6228161;28;20311;-57
2023/09/26 12:08:15;;;;;;;7.35;4.80;;;;;;;23.32;69.24;98397.63;6237389;28;20701;-57
2023/09/26 12:11:18;;;;;;;12.48;4.80;;;;;;;23.29;68.07;98384.63;6238160;28;20766;-57
2023/09/26 12:14:20;;;;;;;9.93;5.03;;;;;;;23.27;66.78;98397.75;6240357;28;20238;-58
2023/09/26 12:17:23;;;;;;;6.78;4.65;;;;;;;23.09;68.59;98388.63;6243581;28;20223;-56
2023/09/26 12:20:26;;;;;;;7.70;5.07;;;;;;;23.05;68.14;98382.19;6240539;28;20306;-55
2023/09/26 12:23:28;;;;;;;7.88;4.85;;;;;;;22.99;68.42;98380.69;6238147;28;20236;-58
2023/09/26 12:26:30;;;;;;;4.82;4.10;;;;;;;23.04;67.43;98380.59;6240361;28;20239;-55
2023/09/26 12:29:33;;;;;;;6.68;4.80;;;;;;;23.17;67.07;98386.00;6239961;28;20363;-55
2023/09/26 12:32:35;;;;;;;8.30;4.78;;;;;;;23.40;64.86;98380.59;6244647;28;20252;-55
2023/09/26 12:35:38;;;;;;;9.70;4.60;;;;;;;23.37;65.78;98382.00;6239892;28;20259;-56
2023/09/26 12:38:41;;;;;;;6.53;4.38;;;;;;;23.23;67.06;98367.66;6242247;28;22242;-56
2023/09/26 12:41:44;;;;;;;5.00;4.50;;;;;;;23.11;65.23;98346.47;6247438;28;20330;-55
2023/09/26 12:44:46;;;;;;;6.28;4.18;;;;;;;23.39;65.81;98368.09;6239721;28;20242;-56
2023/09/26 12:47:49;;;;;;;6.13;4.83;;;;;;;23.37;65.57;98368.41;6242689;28;20237;-53
2023/09/26 12:50:51;;;;;;;7.68;4.55;;;;;;;23.30;66.88;98359.06;6238880;28;20235;-54
2023/09/26 12:53:54;;;;;;;7.63;4.70;;;;;;;23.29;66.23;98357.44;6240930;28;20772;-56
2023/09/26 12:57:01;;;;;;;7.50;4.88;;;;;;;23.04;66.67;98324.31;6238566;28;20231;-57
2023/09/26 13:00:09;;;;;;;7.20;4.28;;;;;;;23.21;68.01;98361.72;6237703;28;20271;-57
2023/09/26 13:03:12;;;;;;;7.65;4.93;;;;;;;23.15;68.22;98362.94;6240620;28;20272;-55
2023/09/26 13:06:14;;;;;;;6.53;4.40;;;;;;;23.13;68.03;98352.38;6244034;28;20450;-51
2023/09/26 13:09:17;;;;;;;5.97;4.68;;;;;;;23.01;69.38;98345.88;6243716;28;20235;-56
2023/09/26 13:12:19;;;;;;;7.65;4.90;;;;;;;22.99;67.46;98345.38;6237318;28;20261;-57
2023/09/26 13:15:21;;;;;;;6.90;4.50;;;;;;;23.05;67.12;98347.66;6239768;28;20579;-57
2023/09/26 13:18:23;;;;;;;5.97;4.40;;;;;;;22.98;67.32;98330.19;6229183;28;20315;-56
2023/09/26 13:21:26;;;;;;;8.10;5.00;;;;;;;23.17;67.06;98352.56;6241032;28;20628;-56
2023/09/26 13:24:30;;;;;;;6.82;4.72;;;;;;;22.86;67.99;98338.84;6243277;28;20631;-55
2023/09/26 13:27:33;;;;;;;7.75;4.30;;;;;;;22.95;67.86;98349.81;6242609;28;20238;-57
2023/09/26 13:30:36;;;;;;;6.63;5.03;;;;;;;23.04;67.29;98343.34;6239037;28;20227;-57
2023/09/26 13:33:41;;;;;;;7.65;4.32;;;;;;;22.94;68.90;98337.34;6239342;28;20357;-57
2023/09/26 13:36:43;;;;;;;10.00;4.72;;;;;;;22.87;68.68;98338.53;6238777;28;20573;-55
2023/09/26 13:39:46;;;;;;;7.30;4.43;;;;;;;22.86;68.29;98333.41;6244068;28;20227;-57
2023/09/26 13:42:48;;;;;;;8.40;4.15;;;;;;;23.01;65.12;98338.53;6238596;28;20266;-54
2023/09/26 13:45:51;;;;;;;5.13;4.30;;;;;;;23.13;65.21;98341.50;6230019;28;20576;-57
2023/09/26 13:48:54;;;;;;;5.00;4.40;;;;;;;23.14;64.04;98334.16;6240379;28;20324;-56
2023/09/26 13:51:57;;;;;;;9.20;4.15;;;;;;;23.15;64.78;98338.47;6240350;28;20325;-57
2023/09/26 13:55:00;;;;;;;6.85;4.03;;;;;;;23.14;65.31;98339.59;6227914;28;21117;-57
2023/09/26 13:58:03;;;;;;;9.57;4.35;;;;;;;23.13;65.41;98343.41;6243273;28;20712;-57
2023/09/26 14:01:05;;;;;;;8.23;4.13;;;;;;;22.97;65.81;98329.38;6244582;28;20238;-58
2023/09/26 14:04:08;;;;;;;6.10;3.85;;;;;;;23.04;66.05;98331.66;6242811;28;20236;-57
2023/09/26 14:07:10;;;;;;;10.85;4.53;;;;;;;22.91;66.58;98334.13;6243867;28;20224;-57
2023/09/26 14:10:13;;;;;;;9.93;4.40;;;;;;;22.69;66.76;98304.16;6242302;28;20330;-58
2023/09/26 14:13:15;;;;;;;6.10;4.67;;;;;;;22.77;67.18;98322.47;6236502;28;20262;-55
2023/09/26 14:16:18;;;;;;;8.20;4.00;;;;;;;22.75;66.26;98327.38;6226783;28;20752;-55